Time;durP1;ratioP1;P1;durP2;ratioP2;P2;SDS_P1;SDS_P2;PMS_P1;PMS_P2;Temp;Humidity;BMP_temperature;BMP_pressure;BME280_temperature;BME280_humidity;BME280_pressure;Samples;Min_cycle;Max_cycle;Signal;HPM_P1;HPM_P2
2022/12/23 00:00:41;;;;;;;200.80;30.30;;;;;;;3.88;100.00;98424.78;4393284;32;20077;-95
2022/12/23 00:03:09;;;;;;;212.68;32.10;;;;;;;3.91;100.00;98428.94;4392982;32;20217;-95
2022/12/23 00:05:37;;;;;;;174.60;28.85;;;;;;;3.99;100.00;98426.62;4393463;32;20111;-96
2022/12/23 00:08:05;;;;;;;134.10;26.23;;;;;;;4.01;100.00;98429.13;4380625;32;20146;-96
2022/12/23 00:10:36;;;;;;;109.00;24.70;;;;;;;4.01;100.00;98427.38;4393237;32;20160;-94
2022/12/23 00:15:50;;;;;;;183.12;31.25;;;;;;;4.04;100.00;98422.00;4382557;32;20179;-95
2022/12/23 00:18:17;;;;;;;229.25;31.27;;;;;;;4.09;100.00;98412.12;4393100;32;20121;-95
2022/12/23 00:20:44;;;;;;;162.15;29.65;;;;;;;4.05;100.00;98415.84;4380567;32;20116;-95
2022/12/23 00:23:11;;;;;;;117.68;30.00;;;;;;;4.09;100.00;98404.34;4368135;32;20107;-95
2022/12/23 00:25:43;;;;;;;99.20;28.67;;;;;;;4.15;100.00;98397.06;4380466;32;20173;-96
2022/12/23 00:28:16;;;;;;;81.20;28.50;;;;;;;4.15;100.00;98399.66;4368215;32;20149;-94
2022/12/23 00:30:54;;;;;;;96.45;28.67;;;;;;;4.22;100.00;98391.38;4392918;32;20766;-95
2022/12/23 00:33:24;;;;;;;89.40;28.60;;;;;;;4.30;100.00;98396.03;4394630;32;20106;-96
2022/12/23 00:35:51;;;;;;;90.87;29.40;;;;;;;4.35;100.00;98393.94;4369780;32;20184;-96
2022/12/23 00:43:56;;;;;;;84.60;30.05;;;;;;;4.49;100.00;98386.97;4395925;32;20133;-95
2022/12/23 00:46:23;;;;;;;95.97;29.90;;;;;;;4.44;100.00;98395.88;4369765;32;20617;-95
2022/12/23 00:51:37;;;;;;;79.55;28.73;;;;;;;4.44;100.00;98390.69;4394755;32;20098;-96
2022/12/23 00:54:05;;;;;;;83.28;26.58;;;;;;;4.49;100.00;98395.56;4382184;32;20119;-96
2022/12/23 00:56:32;;;;;;;84.00;27.02;;;;;;;4.45;100.00;98401.88;4382404;32;20133;-96
2022/12/23 00:58:59;;;;;;;86.10;30.77;;;;;;;4.54;100.00;98401.28;4369754;32;20098;-96
2022/12/23 01:07:01;;;;;;;87.03;28.02;;;;;;;4.53;100.00;98406.56;4383919;32;20149;-96
2022/12/23 01:09:28;;;;;;;81.45;28.92;;;;;;;4.63;100.00;98389.38;4382064;32;20098;-96
2022/12/23 01:11:55;;;;;;;74.87;26.20;;;;;;;4.67;100.00;98387.44;4382096;32;20112;-96
2022/12/23 01:14:23;;;;;;;75.90;27.70;;;;;;;4.65;100.00;98397.91;4381986;32;20565;-96
2022/12/23 01:16:51;;;;;;;79.87;27.52;;;;;;;4.73;100.00;98381.78;4394677;32;20135;-96
2022/12/23 01:19:18;;;;;;;73.18;26.50;;;;;;;4.82;100.00;98382.91;4369655;32;20094;-96
2022/12/23 01:21:45;;;;;;;71.60;24.87;;;;;;;4.96;100.00;98380.94;4391275;32;20105;-96
2022/12/23 01:24:13;;;;;;;68.90;26.00;;;;;;;4.91;100.00;98377.06;4384867;32;20126;-96
2022/12/23 01:26:40;;;;;;;73.40;26.58;;;;;;;4.89;100.00;98368.53;4384514;32;20173;-95
2022/12/23 01:29:07;;;;;;;74.12;26.67;;;;;;;4.84;100.00;98366.25;4396971;32;20116;-96
2022/12/23 01:31:35;;;;;;;89.90;28.67;;;;;;;4.74;100.00;98362.69;4409398;32;20086;-95
2022/12/23 01:34:02;;;;;;;67.55;25.33;;;;;;;4.85;100.00;98367.94;4396770;32;20152;-95
2022/12/23 01:36:29;;;;;;;68.47;26.27;;;;;;;4.79;100.00;98364.00;4384669;32;20136;-96
2022/12/23 01:38:57;;;;;;;76.82;26.73;;;;;;;4.87;100.00;98352.25;4397253;32;20098;-95
2022/12/23 01:44:52;;;;;;;63.33;24.15;;;;;;;4.91;100.00;98351.91;4398167;32;20162;-96
2022/12/23 01:47:39;;;;;;;62.40;24.27;;;;;;;4.92;100.00;98342.34;4409626;32;20129;-96
2022/12/23 01:50:20;;;;;;;65.97;25.12;;;;;;;5.01;100.00;98339.09;4397052;32;20098;-96
2022/12/23 01:53:01;;;;;;;61.58;24.48;;;;;;;5.08;100.00;98332.50;4384651;32;20671;-95
2022/12/23 01:56:02;;;;;;;66.28;24.58;;;;;;;5.07;100.00;98325.69;4397497;32;20149;-96
2022/12/23 01:58:34;;;;;;;67.70;23.35;;;;;;;5.11;100.00;98327.09;4384484;32;20479;-95
2022/12/23 02:03:50;;;;;;;62.88;23.08;;;;;;;5.11;100.00;98319.28;4409511;32;20082;-96
2022/12/23 02:09:15;;;;;;;55.60;22.85;;;;;;;4.97;100.00;98315.13;4409627;32;20101;-96
2022/12/23 02:12:10;;;;;;;75.12;23.33;;;;;;;4.96;100.00;98323.03;4397014;32;20086;-96
2022/12/23 02:17:47;;;;;;;70.78;22.85;;;;;;;4.69;100.00;98316.31;4409063;32;20484;-96
2022/12/23 02:20:24;;;;;;;257.95;28.73;;;;;;;4.51;100.00;98317.63;4396713;32;20114;-95
2022/12/23 02:23:22;;;;;;;276.98;29.00;;;;;;;4.46;100.00;98311.97;4396732;32;20090;-96
2022/12/23 02:26:28;;;;;;;270.55;27.83;;;;;;;4.33;100.00;98314.59;4396920;32;20454;-95
2022/12/23 02:29:01;;;;;;;489.35;36.15;;;;;;;4.31;100.00;98309.50;4377632;32;20114;-96
2022/12/23 02:32:01;;;;;;;315.80;30.27;;;;;;;4.19;100.00;98302.59;4353117;32;20119;-95
2022/12/23 02:34:52;;;;;;;384.48;30.30;;;;;;;4.11;100.00;98315.28;4352806;32;20467;-95
2022/12/23 02:37:22;;;;;;;245.75;28.23;;;;;;;4.04;100.00;98310.53;4360367;32;20162;-96
2022/12/23 02:39:57;;;;;;;381.83;33.70;;;;;;;4.02;100.00;98314.97;4352896;32;20170;-96
2022/12/23 02:43:03;;;;;;;269.30;26.17;;;;;;;3.93;100.00;98318.22;4353071;32;20491;-96
2022/12/23 02:45:51;;;;;;;347.88;28.02;;;;;;;3.93;100.00;98318.22;4352677;32;20565;-96
2022/12/23 02:48:31;;;;;;;271.87;30.58;;;;;;;3.92;100.00;98316.53;4365028;32;20138;-96
2022/12/23 02:51:02;;;;;;;203.00;24.50;;;;;;;3.85;100.00;98321.34;4365484;32;20710;-96
2022/12/23 02:53:36;;;;;;;122.40;22.45;;;;;;;3.82;100.00;98320.72;4365619;32;20110;-95
2022/12/23 02:56:05;;;;;;;331.70;30.85;;;;;;;3.75;100.00;98329.84;4365313;32;20086;-96
2022/12/23 02:58:41;;;;;;;458.87;39.58;;;;;;;3.72;100.00;98321.38;4365290;32;20661;-96
2022/12/23 03:01:09;;;;;;;448.92;36.30;;;;;;;3.66;100.00;98316.56;4384300;32;20514;-96
2022/12/23 03:03:39;;;;;;;394.42;37.22;;;;;;;3.69;100.00;98318.97;4383954;32;20114;-96
2022/12/23 03:06:19;;;;;;;232.80;31.80;;;;;;;3.61;100.00;98316.06;4396444;32;20101;-96
2022/12/23 03:08:49;;;;;;;348.92;38.67;;;;;;;3.63;100.00;98326.31;4396264;32;20443;-96
2022/12/23 03:11:17;;;;;;;396.25;33.95;;;;;;;3.67;100.00;98323.41;4396334;32;20130;-95
2022/12/23 03:14:06;;;;;;;435.02;37.88;;;;;;;3.55;100.00;98313.91;4383999;32;20506;-96
2022/12/23 03:16:55;;;;;;;456.73;41.47;;;;;;;3.54;100.00;98302.72;4408667;32;20108;-96
2022/12/23 03:19:25;;;;;;;277.55;34.70;;;;;;;3.58;100.00;98302.50;4408729;32;20114;-96
2022/12/23 03:22:12;;;;;;;169.75;27.33;;;;;;;3.63;100.00;98309.00;4408559;32;20576;-96
2022/12/23 03:24:39;;;;;;;444.95;38.75;;;;;;;3.70;100.00;98299.91;4408844;32;20114;-95
2022/12/23 03:27:40;;;;;;;273.80;30.08;;;;;;;3.65;100.00;98295.97;4396349;32;20167;-96
2022/12/23 03:30:15;;;;;;;249.90;30.45;;;;;;;3.66;100.00;98298.44;4340086;32;20169;-95
2022/12/23 03:32:50;;;;;;;403.62;37.47;;;;;;;3.65;100.00;98302.00;4365184;32;20146;-96
2022/12/23 03:35:18;;;;;;;;;;;;;;;3.48;100.00;98294.53;4364900;32;20106;-96
2022/12/23 03:37:49;;;;;;;203.52;27.20;;;;;;;3.30;100.00;98300.03;4365310;32;19993;-95
2022/12/23 03:40:23;;;;;;;186.12;27.20;;;;;;;3.50;100.00;98292.69;4364729;32;20090;-96
2022/12/23 03:42:58;;;;;;;231.32;26.95;;;;;;;3.61;100.00;98299.72;4352784;32;20134;-95
2022/12/23 03:45:35;;;;;;;226.55;28.83;;;;;;;3.61;100.00;98302.31;4364989;32;20133;-95
2022/12/23 03:48:23;;;;;;;247.85;28.02;;;;;;;3.65;100.00;98298.53;4364701;32;20128;-96
2022/12/23 03:50:55;;;;;;;212.95;26.40;;;;;;;3.65;100.00;98298.53;4365007;32;20125;-95
2022/12/23 03:53:29;;;;;;;291.00;30.12;;;;;;;3.58;100.00;98298.16;4364974;32;20103;-96
2022/12/23 03:56:04;;;;;;;292.92;29.00;;;;;;;3.58;100.00;98299.91;4352423;32;20494;-96
2022/12/23 03:58:33;;;;;;;257.83;28.02;;;;;;;3.10;100.00;98296.16;4364919;32;20159;-95
2022/12/23 04:01:37;;;;;;;246.07;25.45;;;;;;;3.04;100.00;98299.16;4364830;32;20115;-96
2022/12/23 04:04:43;;;;;;;281.63;28.10;;;;;;;3.20;100.00;98288.63;4364951;32;20106;-96
2022/12/23 04:07:16;;;;;;;244.85;26.02;;;;;;;3.15;100.00;98285.50;4387684;32;20102;-96
2022/12/23 04:09:44;;;;;;;280.10;29.60;;;;;;;3.23;100.00;98283.25;4383274;32;20427;-95
2022/12/23 04:12:13;;;;;;;215.15;29.02;;;;;;;3.27;100.00;98291.63;4395679;32;20126;-96
2022/12/23 04:14:47;;;;;;;270.42;26.95;;;;;;;3.26;100.00;98288.22;4383095;32;20581;-95
2022/12/23 04:17:15;;;;;;;277.85;30.73;;;;;;;3.31;100.00;98274.94;4408254;32;20461;-96
2022/12/23 04:19:46;;;;;;;331.85;31.12;;;;;;;3.04;100.00;98278.44;4383121;32;20098;-95
2022/12/23 04:22:14;;;;;;;280.30;30.75;;;;;;;3.15;100.00;98288.09;4408438;32;20450;-96
2022/12/23 04:24:42;;;;;;;323.65;30.67;;;;;;;3.09;100.00;98286.75;4395824;32;20157;-96
2022/12/23 04:27:13;;;;;;;206.13;25.05;;;;;;;3.13;100.00;98287.38;4395455;32;20463;-95
2022/12/23 04:29:41;;;;;;;385.55;32.42;;;;;;;3.14;100.00;98289.03;4395335;32;20085;-96
2022/12/23 04:32:09;;;;;;;251.70;27.30;;;;;;;3.13;100.00;98289.97;4395419;32;20117;-96
2022/12/23 04:34:36;;;;;;;293.92;28.02;;;;;;;3.09;100.00;98298.84;4407727;32;20463;-95
2022/12/23 04:37:03;;;;;;;346.45;31.12;;;;;;;3.07;100.00;98304.13;4395421;32;20537;-96
2022/12/23 04:39:31;;;;;;;322.80;27.27;;;;;;;3.01;100.00;98299.34;4395244;32;20174;-95
2022/12/23 04:41:58;;;;;;;339.95;26.12;;;;;;;2.99;100.00;98296.88;4382838;32;20113;-96
2022/12/23 04:44:25;;;;;;;260.83;24.48;;;;;;;2.96;100.00;98291.91;4395524;32;20137;-96
2022/12/23 04:46:53;;;;;;;259.60;24.48;;;;;;;2.99;100.00;98293.47;4395284;32;20117;-95
2022/12/23 04:49:20;;;;;;;215.52;20.92;;;;;;;2.97;100.00;98293.56;4407571;32;20177;-95
2022/12/23 04:51:47;;;;;;;233.85;21.30;;;;;;;2.96;100.00;98301.44;4382767;32;20106;-95
2022/12/23 04:54:15;;;;;;;176.82;20.23;;;;;;;2.91;100.00;98295.75;4395507;32;20102;-95
2022/12/23 04:56:42;;;;;;;310.63;27.00;;;;;;;3.00;100.00;98293.34;4382641;32;20118;-96
2022/12/23 04:59:09;;;;;;;351.95;26.30;;;;;;;2.95;100.00;98279.06;4395055;32;20094;-96
2022/12/23 05:01:37;;;;;;;247.90;24.55;;;;;;;2.70;100.00;98269.50;4407532;32;20709;-96
2022/12/23 05:04:04;;;;;;;328.05;25.60;;;;;;;2.74;100.00;98276.97;4394842;32;20101;-95
2022/12/23 05:06:32;;;;;;;188.90;19.95;;;;;;;2.60;100.00;98280.41;4395062;32;20107;-96
2022/12/23 05:08:59;;;;;;;240.50;22.33;;;;;;;2.61;100.00;98276.91;4382472;32;20383;-96
2022/12/23 05:11:26;;;;;;;220.95;23.33;;;;;;;2.67;100.00;98276.53;4407362;32;20463;-96
2022/12/23 05:13:54;;;;;;;185.73;20.52;;;;;;;2.77;100.00;98276.75;4382307;32;20130;-95
2022/12/23 05:16:21;;;;;;;191.88;20.55;;;;;;;2.79;100.00;98267.12;4407181;32;20166;-95
2022/12/23 05:18:49;;;;;;;135.35;20.58;;;;;;;2.70;100.00;98272.91;4395203;32;20106;-96
2022/12/23 05:21:16;;;;;;;261.40;23.35;;;;;;;2.69;100.00;98273.00;4396878;32;20161;-96
2022/12/23 05:23:44;;;;;;;193.35;19.37;;;;;;;2.65;100.00;98280.16;4409258;32;20122;-95
2022/12/23 05:26:11;;;;;;;234.82;21.73;;;;;;;2.67;100.00;98281.69;4396976;32;20118;-95
2022/12/23 05:28:38;;;;;;;266.08;23.27;;;;;;;2.67;100.00;98271.34;4397026;32;20098;-94
2022/12/23 05:31:07;;;;;;;183.95;21.15;;;;;;;2.49;100.00;98298.41;4396372;32;20110;-95
2022/12/23 05:33:34;;;;;;;177.25;20.08;;;;;;;2.63;100.00;98298.34;4387777;32;20105;-96
2022/12/23 05:36:03;;;;;;;120.28;17.90;;;;;;;2.56;100.00;98304.00;4384632;32;20169;-96
2022/12/23 05:38:30;;;;;;;180.82;18.85;;;;;;;2.63;100.00;98306.12;4384486;32;20545;-94
2022/12/23 05:40:58;;;;;;;218.57;20.48;;;;;;;2.62;100.00;98306.19;4396813;32;20157;-95
2022/12/23 05:43:25;;;;;;;257.60;19.55;;;;;;;2.67;100.00;98304.97;4408851;32;20491;-96
2022/12/23 05:45:52;;;;;;;202.05;20.48;;;;;;;2.66;100.00;98295.56;4384505;32;20180;-96
2022/12/23 05:48:20;;;;;;;276.20;22.98;;;;;;;2.57;100.00;98295.31;4409353;32;20166;-96
2022/12/23 05:50:49;;;;;;;248.52;21.00;;;;;;;2.63;100.00;98295.78;4383589;32;20148;-93
2022/12/23 05:53:17;;;;;;;209.68;19.35;;;;;;;2.63;100.00;98293.19;4409600;32;20153;-94
2022/12/23 05:55:45;;;;;;;124.85;18.80;;;;;;;2.66;100.00;98290.41;4410059;32;20174;-95
2022/12/23 05:58:13;;;;;;;160.57;17.50;;;;;;;2.68;100.00;98285.13;4422018;32;20085;-96
2022/12/23 06:00:41;;;;;;;176.75;20.10;;;;;;;2.65;100.00;98282.75;4384586;32;20129;-96
2022/12/23 06:03:10;;;;;;;218.98;20.85;;;;;;;2.70;100.00;98279.84;4384324;32;20137;-96
2022/12/23 06:05:39;;;;;;;148.43;17.10;;;;;;;2.70;100.00;98277.28;4396797;32;20136;-96
2022/12/23 06:08:06;;;;;;;222.48;20.35;;;;;;;2.65;100.00;98280.97;4384410;32;20462;-95
2022/12/23 06:10:33;;;;;;;113.45;15.68;;;;;;;2.42;100.00;98289.38;4396765;32;20098;-96
2022/12/23 06:13:01;;;;;;;254.98;21.80;;;;;;;2.46;100.00;98289.06;4384058;32;20118;-94
2022/12/23 06:15:28;;;;;;;240.50;20.37;;;;;;;2.47;100.00;98289.91;4410018;32;20102;-94
2022/12/23 06:17:55;;;;;;;266.75;24.15;;;;;;;2.53;100.00;98288.69;4396612;32;20094;-96
2022/12/23 06:20:23;;;;;;;287.10;22.83;;;;;;;2.35;100.00;98291.53;4384118;32;20140;-95
2022/12/23 06:22:50;;;;;;;383.50;28.02;;;;;;;2.18;100.00;98282.25;4396589;32;20106;-95
2022/12/23 06:25:17;;;;;;;384.08;28.48;;;;;;;2.11;100.00;98279.22;4384046;32;20168;-95
2022/12/23 06:27:45;;;;;;;343.40;24.40;;;;;;;2.02;100.00;98260.88;4384380;32;20561;-95
2022/12/23 06:30:13;;;;;;;286.92;21.77;;;;;;;1.85;100.00;98262.75;4383682;32;20098;-95
2022/12/23 06:32:40;;;;;;;294.52;22.08;;;;;;;1.99;100.00;98263.66;4408961;32;20515;-96
2022/12/23 06:35:08;;;;;;;307.73;24.37;;;;;;;1.98;100.00;98264.56;4383687;32;20079;-95
2022/12/23 06:37:35;;;;;;;354.80;25.17;;;;;;;2.09;100.00;98280.22;4409265;32;20116;-96
2022/12/23 06:40:03;;;;;;;203.65;19.85;;;;;;;2.13;100.00;98290.28;4396862;32;20443;-96
2022/12/23 06:42:31;;;;;;;152.77;16.90;;;;;;;2.24;100.00;98297.38;4384037;32;20169;-96
2022/12/23 06:44:58;;;;;;;157.65;16.58;;;;;;;2.28;100.00;98306.56;4383952;32;20180;-95
2022/12/23 06:47:25;;;;;;;164.88;18.77;;;;;;;2.34;100.00;98320.06;4396581;32;20184;-96
2022/12/23 06:49:53;;;;;;;194.87;19.15;;;;;;;2.39;100.00;98331.78;4396300;32;20108;-95
2022/12/23 06:52:21;;;;;;;205.85;18.15;;;;;;;2.42;100.00;98334.16;4396495;32;20137;-96
2022/12/23 06:54:49;;;;;;;264.67;18.12;;;;;;;2.46;100.00;98330.44;4408696;32;20526;-96
2022/12/23 06:57:16;;;;;;;227.85;19.42;;;;;;;2.57;100.00;98337.50;4396627;32;20112;-95
2022/12/23 06:59:43;;;;;;;183.98;18.37;;;;;;;2.53;100.00;98346.41;4409578;32;20117;-95
2022/12/23 07:02:11;;;;;;;252.73;19.33;;;;;;;2.60;100.00;98352.81;4396449;32;20134;-95
2022/12/23 07:04:38;;;;;;;296.33;21.60;;;;;;;2.58;100.00;98364.22;4408739;32;20113;-95
2022/12/23 07:07:06;;;;;;;314.90;21.70;;;;;;;2.67;100.00;98363.63;4408448;32;20086;-96
2022/12/23 07:09:33;;;;;;;323.62;24.55;;;;;;;2.63;100.00;98359.56;4408642;32;20147;-96
2022/12/23 07:12:02;;;;;;;362.98;23.52;;;;;;;2.63;100.00;98344.91;4382918;32;20137;-94
2022/12/23 07:14:29;;;;;;;276.17;20.05;;;;;;;2.65;100.00;98337.88;4396220;32;20176;-96
2022/12/23 07:16:57;;;;;;;298.05;22.50;;;;;;;2.76;100.00;98333.78;4408589;32;20166;-95
2022/12/23 07:19:24;;;;;;;159.07;18.37;;;;;;;2.62;100.00;98317.37;4395835;32;20113;-95
2022/12/23 07:21:51;;;;;;;113.40;16.77;;;;;;;2.88;100.00;98324.37;4410056;32;20102;-94
2022/12/23 07:24:19;;;;;;;214.10;20.98;;;;;;;2.95;100.00;98318.72;4396200;32;20110;-96
2022/12/23 07:26:46;;;;;;;143.95;17.95;;;;;;;2.91;100.00;98312.06;4396283;32;20116;-96
2022/12/23 07:29:13;;;;;;;161.37;17.75;;;;;;;2.39;100.00;98318.84;4383469;32;20102;-96
2022/12/23 07:31:40;;;;;;;141.10;18.15;;;;;;;2.49;100.00;98324.25;4408507;32;20141;-96
2022/12/23 07:34:08;;;;;;;232.27;20.75;;;;;;;2.52;100.00;98320.66;4396252;32;20167;-95
2022/12/23 07:36:35;;;;;;;194.70;19.95;;;;;;;2.37;100.00;98322.44;4408952;32;20113;-96
2022/12/23 07:39:03;;;;;;;185.30;19.02;;;;;;;2.57;100.00;98322.00;4408464;32;20086;-95
2022/12/23 07:41:31;;;;;;;173.80;18.58;;;;;;;2.67;100.00;98325.66;4395313;32;20416;-95
2022/12/23 07:43:59;;;;;;;188.37;20.83;;;;;;;2.58;100.00;98330.59;4396263;32;20105;-94
2022/12/23 07:46:27;;;;;;;274.90;21.37;;;;;;;2.64;100.00;98327.62;4396105;32;20189;-96
2022/12/23 07:48:54;;;;;;;320.45;22.95;;;;;;;2.57;100.00;98321.19;4383926;32;20109;-95
2022/12/23 07:51:21;;;;;;;319.00;25.27;;;;;;;2.69;100.00;98309.22;4408372;32;20110;-95
2022/12/23 07:53:49;;;;;;;349.60;27.60;;;;;;;2.75;100.00;98303.66;4408443;32;20504;-95
2022/12/23 07:56:17;;;;;;;274.15;20.20;;;;;;;2.97;100.00;98311.69;4383806;32;20093;-94
2022/12/23 07:58:48;;;;;;;374.92;23.30;;;;;;;3.00;100.00;98293.34;4383815;32;20082;-95
2022/12/23 08:01:17;;;;;;;246.95;22.73;;;;;;;3.10;100.00;98303.09;4376608;32;225630;-95
2022/12/23 08:03:45;;;;;;;256.70;21.75;;;;;;;3.27;100.00;98297.66;4395854;32;20129;-96
2022/12/23 08:06:14;;;;;;;244.15;20.55;;;;;;;3.59;100.00;98307.59;4383162;32;20162;-96
2022/12/23 08:08:43;;;;;;;260.65;22.10;;;;;;;3.76;100.00;98315.97;4395878;32;20152;-96
2022/12/23 08:11:12;;;;;;;311.67;23.50;;;;;;;3.96;100.00;98323.19;4383198;32;20471;-96
2022/12/23 08:13:41;;;;;;;120.68;16.37;;;;;;;3.83;100.00;98307.66;4395658;32;20185;-94
2022/12/23 08:16:09;;;;;;;174.90;18.85;;;;;;;3.82;100.00;98306.00;4407916;32;20120;-94
2022/12/23 08:18:38;;;;;;;352.10;25.67;;;;;;;3.89;100.00;98290.84;4407742;32;20062;-94
2022/12/23 08:21:11;;;;;;;274.37;24.48;;;;;;;3.58;100.00;98285.19;4382322;32;20144;-94
2022/12/23 08:23:39;;;;;;;431.08;30.58;;;;;;;3.12;100.00;98281.38;4407097;32;20119;-93
2022/12/23 08:26:13;;;;;;;331.92;25.37;;;;;;;2.99;100.00;98289.09;4408084;32;20529;-94
2022/12/23 08:28:41;;;;;;;372.60;27.50;;;;;;;2.92;100.00;98284.44;4393998;32;20093;-93
2022/12/23 08:31:12;;;;;;;371.90;29.33;;;;;;;2.83;100.00;98285.84;4407348;32;20106;-93
2022/12/23 08:33:42;;;;;;;280.95;24.30;;;;;;;2.55;100.00;98297.19;4396479;32;20110;-93
2022/12/23 08:36:13;;;;;;;343.50;28.77;;;;;;;2.73;100.00;98302.94;4405718;32;20099;-94
2022/12/23 08:38:50;;;;;;;412.27;29.73;;;;;;;2.74;100.00;98302.84;4407009;32;20086;-94
2022/12/23 08:41:19;;;;;;;351.48;28.42;;;;;;;2.61;100.00;98297.59;4394696;32;20102;-93
2022/12/23 08:43:47;;;;;;;320.05;24.48;;;;;;;2.48;100.00;98281.22;4407471;32;20094;-94
2022/12/23 08:46:14;;;;;;;352.27;26.08;;;;;;;2.76;100.00;98279.44;4356965;32;20448;-94
2022/12/23 08:48:41;;;;;;;302.87;27.00;;;;;;;2.81;100.00;98274.78;4392705;32;20452;-94
2022/12/23 08:51:17;;;;;;;242.95;25.20;;;;;;;2.89;100.00;98285.47;4391650;32;20094;-95
2022/12/23 08:53:45;;;;;;;346.33;29.05;;;;;;;3.17;100.00;98275.88;4392859;32;20150;-94
2022/12/23 08:56:16;;;;;;;337.55;28.62;;;;;;;3.11;100.00;98269.34;4381367;32;20094;-93
2022/12/23 08:58:45;;;;;;;322.02;26.90;;;;;;;3.08;100.00;98264.38;4395391;32;20079;-95
2022/12/23 09:01:15;;;;;;;301.08;25.48;;;;;;;3.02;100.00;98263.03;4380683;32;20169;-95
2022/12/23 09:03:43;;;;;;;256.92;26.15;;;;;;;3.24;100.00;98271.13;4393209;32;20126;-94
2022/12/23 09:06:22;;;;;;;345.15;27.52;;;;;;;3.25;100.00;98260.66;4394607;32;20497;-94
2022/12/23 09:08:57;;;;;;;306.52;24.60;;;;;;;3.37;100.00;98257.22;4392521;32;20090;-94
2022/12/23 09:11:26;;;;;;;238.65;25.25;;;;;;;3.42;100.00;98263.87;4416780;32;20105;-95
2022/12/23 09:13:53;;;;;;;276.60;26.37;;;;;;;3.62;100.00;98263.34;4381510;32;20110;-94
2022/12/23 09:16:21;;;;;;;313.62;28.65;;;;;;;3.48;100.00;98266.88;4398596;32;20113;-94
2022/12/23 09:18:48;;;;;;;201.15;24.35;;;;;;;3.38;100.00;98273.63;4409206;32;20094;-95
2022/12/23 09:21:20;;;;;;;268.70;23.75;;;;;;;3.40;100.00;98274.31;4408836;32;20135;-96
2022/12/23 09:23:48;;;;;;;196.12;22.48;;;;;;;3.57;100.00;98268.00;4409138;32;20103;-94
2022/12/23 09:26:27;;;;;;;193.00;22.80;;;;;;;3.67;100.00;98273.38;4409309;32;20113;-95
2022/12/23 09:28:55;;;;;;;271.90;24.67;;;;;;;3.75;100.00;98283.22;4409752;32;20108;-95
2022/12/23 09:31:23;;;;;;;270.77;23.65;;;;;;;3.88;100.00;98276.25;4409082;32;20101;-95
2022/12/23 09:33:58;;;;;;;248.95;21.77;;;;;;;3.76;100.00;98279.69;4409237;32;20772;-95
2022/12/23 09:36:25;;;;;;;249.32;22.37;;;;;;;3.98;100.00;98263.47;4409031;32;20082;-95
2022/12/23 09:38:56;;;;;;;287.67;23.67;;;;;;;4.12;100.00;98271.09;4396619;32;20116;-95
2022/12/23 09:41:49;;;;;;;216.60;21.37;;;;;;;3.89;100.00;98257.16;4409041;32;20124;-95
2022/12/23 09:44:25;;;;;;;159.57;22.23;;;;;;;4.08;100.00;98262.69;4409056;32;20562;-95
2022/12/23 09:46:56;;;;;;;229.00;23.48;;;;;;;4.15;100.00;98250.16;4409732;32;20114;-95
2022/12/23 09:49:23;;;;;;;282.42;27.90;;;;;;;4.03;100.00;98251.84;4410022;32;20074;-95
2022/12/23 09:51:52;;;;;;;265.52;24.87;;;;;;;3.64;100.00;98250.28;4408596;32;20756;-94
2022/12/23 09:54:23;;;;;;;274.37;25.33;;;;;;;3.54;100.00;98257.84;4408647;32;20447;-94
2022/12/23 09:57:27;;;;;;;280.02;25.17;;;;;;;3.78;100.00;98267.47;4408738;32;20106;-93
2022/12/23 10:00:01;;;;;;;206.68;22.05;;;;;;;3.77;100.00;98258.03;4396957;32;20137;-94
2022/12/23 10:02:50;;;;;;;161.88;21.35;;;;;;;3.79;100.00;98248.41;4409618;32;20454;-94
2022/12/23 10:05:34;;;;;;;206.60;20.98;;;;;;;3.85;100.00;98246.19;4409464;32;20108;-96
2022/12/23 10:08:07;;;;;;;196.77;22.55;;;;;;;3.92;100.00;98243.97;4408991;32;20118;-95
2022/12/23 10:10:44;;;;;;;294.73;24.70;;;;;;;3.73;100.00;98240.09;4409320;32;20487;-95
2022/12/23 10:13:28;;;;;;;207.02;23.58;;;;;;;3.61;100.00;98246.13;4408624;32;20106;-96
2022/12/23 10:16:00;;;;;;;217.13;23.33;;;;;;;3.76;100.00;98238.25;4420992;32;20140;-95
2022/12/23 10:18:41;;;;;;;223.75;24.05;;;;;;;3.80;100.00;98239.66;4408276;32;20471;-95
2022/12/23 10:21:30;;;;;;;70.32;19.48;;;;;;;4.02;100.00;98232.03;4408871;32;20557;-95
2022/12/23 10:24:01;;;;;;;187.90;24.30;;;;;;;4.28;100.00;98233.72;4408556;32;20122;-96
2022/12/23 10:26:38;;;;;;;179.50;25.88;;;;;;;4.44;100.00;98223.88;4396121;32;20474;-94
2022/12/23 10:29:16;;;;;;;182.68;23.12;;;;;;;4.49;100.00;98226.16;4408072;32;20181;-94
2022/12/23 10:31:52;;;;;;;265.08;25.45;;;;;;;4.41;100.00;98213.75;4409331;32;20086;-94
2022/12/23 10:34:24;;;;;;;308.38;25.60;;;;;;;4.40;100.00;98212.88;4409032;32;20121;-95
2022/12/23 10:36:58;;;;;;;251.15;26.30;;;;;;;4.32;100.00;98210.03;4407659;32;20616;-94
2022/12/23 10:39:42;;;;;;;260.77;25.77;;;;;;;4.16;100.00;98212.91;4408582;32;20382;-94
2022/12/23 10:42:32;;;;;;;203.95;23.77;;;;;;;3.97;100.00;98205.62;4407834;32;20094;-94
2022/12/23 10:45:02;;;;;;;268.90;25.08;;;;;;;4.20;100.00;98195.37;4395048;32;20098;-95
2022/12/23 10:47:36;;;;;;;157.00;23.95;;;;;;;4.45;100.00;98202.19;4420273;32;20429;-94
2022/12/23 10:50:06;;;;;;;214.45;23.00;;;;;;;4.51;100.00;98193.13;4409251;32;20107;-95
2022/12/23 10:52:36;;;;;;;191.25;23.92;;;;;;;4.19;100.00;98185.94;4409555;32;20131;-94
2022/12/23 10:55:04;;;;;;;226.73;22.00;;;;;;;4.40;100.00;98202.53;4395740;32;20094;-95
2022/12/23 10:57:31;;;;;;;316.77;26.87;;;;;;;4.68;100.00;98191.88;4397250;32;20164;-96
2022/12/23 10:59:59;;;;;;;130.70;21.17;;;;;;;4.71;100.00;98199.44;4396897;32;20102;-94
2022/12/23 11:02:45;;;;;;;196.80;24.85;;;;;;;4.77;100.00;98192.03;4396017;32;20129;-95
2022/12/23 11:05:16;;;;;;;132.10;21.05;;;;;;;4.79;100.00;98204.91;4409037;32;20471;-94
2022/12/23 11:07:45;;;;;;;211.85;24.60;;;;;;;4.86;100.00;98205.25;4407501;32;20114;-95
2022/12/23 11:10:21;;;;;;;279.77;27.37;;;;;;;5.04;100.00;98185.72;4394207;32;20212;-94
2022/12/23 11:12:51;;;;;;;306.87;27.23;;;;;;;4.60;100.00;98193.28;4392497;32;20124;-93
2022/12/23 11:15:39;;;;;;;79.95;18.42;;;;;;;4.51;100.00;98195.72;4392492;32;20541;-94
2022/12/23 11:18:10;;;;;;;103.75;20.88;;;;;;;4.68;100.00;98190.12;4391792;32;20093;-94
2022/12/23 11:20:39;;;;;;;231.30;25.02;;;;;;;4.86;100.00;98192.28;4382107;32;20117;-93
2022/12/23 11:23:27;;;;;;;112.95;22.37;;;;;;;4.50;100.00;98184.53;4378767;32;20086;-94
2022/12/23 11:26:10;;;;;;;240.68;26.05;;;;;;;4.65;100.00;98173.94;4377175;32;20119;-94
2022/12/23 11:28:39;;;;;;;285.55;28.52;;;;;;;4.83;100.00;98169.16;4377512;32;20091;-94
2022/12/23 11:31:13;;;;;;;155.23;25.40;;;;;;;4.59;100.00;98164.87;4376844;32;20514;-94
2022/12/23 11:33:50;;;;;;;219.30;26.35;;;;;;;4.65;100.00;98160.97;4389855;32;20100;-94
2022/12/23 11:36:23;;;;;;;173.55;26.27;;;;;;;4.53;100.00;98165.34;4378303;32;20169;-95
2022/12/23 11:39:00;;;;;;;;;;;;;;;4.75;100.00;98170.56;4366112;32;20134;-94
2022/12/23 11:41:34;;;;;;;149.62;23.87;;;;;;;4.96;100.00;98177.66;4378074;32;20350;-95
2022/12/23 11:44:23;;;;;;;201.35;24.63;;;;;;;4.94;100.00;98180.37;4377868;32;20079;-95
2022/12/23 11:47:19;;;;;;;120.78;23.55;;;;;;;5.18;100.00;98176.03;4377941;32;20106;-95
2022/12/23 11:49:55;;;;;;;110.97;22.20;;;;;;;5.35;100.00;98198.94;4378777;32;20106;-95
2022/12/23 11:52:24;;;;;;;174.23;25.77;;;;;;;5.48;100.00;98180.63;4392705;32;20102;-95
2022/12/23 11:54:54;;;;;;;174.15;24.67;;;;;;;5.44;100.00;98180.03;4381795;32;20083;-94
2022/12/23 11:57:30;;;;;;;139.12;23.23;;;;;;;5.06;100.00;98186.41;4376414;32;20129;-95
2022/12/23 12:00:00;;;;;;;137.25;22.65;;;;;;;5.18;100.00;98184.66;4375164;32;20444;-94
2022/12/23 12:02:33;;;;;;;101.12;22.55;;;;;;;5.37;100.00;98184.06;4385567;32;20094;-95